sensor_id;sensor_type;location;lat;lon;timestamp;P1;durP1;ratioP1;P2;durP2;ratioP2
4001;SDS011;2015;48.670;9.060;2024-03-02T00:00:24;9.10;;;7.30;;
4001;SDS011;2015;48.670;9.060;2024-03-02T00:02:58;8.83;;;7.03;;
4001;SDS011;2015;48.670;9.060;2024-03-02T00:05:29;8.93;;;8.00;;
4001;SDS011;2015;48.670;9.060;2024-03-02T00:08:01;13.40;;;9.15;;
4001;SDS011;2015;48.670;9.060;2024-03-02T00:10:39;12.03;;;7.90;;
4001;SDS011;2015;48.670;9.060;2024-03-02T00:13:12;12.03;;;7.43;;
4001;SDS011;2015;48.670;9.060;2024-03-02T00:15:48;7.57;;;6.83;;
4001;SDS011;2015;48.670;9.060;2024-03-02T00:21:06;10.70;;;6.80;;
4001;SDS011;2015;48.670;9.060;2024-03-02T00:23:41;16.07;;;8.17;;
4001;SDS011;2015;48.670;9.060;2024-03-02T00:26:12;9.77;;;6.97;;
4001;SDS011;2015;48.670;9.060;2024-03-02T00:28:46;8.10;;;6.57;;
4001;SDS011;2015;48.670;9.060;2024-03-02T00:31:19;9.83;;;7.20;;
4001;SDS011;2015;48.670;9.060;2024-03-02T00:33:51;10.70;;;6.83;;
4001;SDS011;2015;48.670;9.060;2024-03-02T00:36:26;7.13;;;6.17;;
4001;SDS011;2015;48.670;9.060;2024-03-02T00:38:58;10.83;;;6.63;;
4001;SDS011;2015;48.670;9.060;2024-03-02T00:41:31;9.50;;;7.23;;
4001;SDS011;2015;48.670;9.060;2024-03-02T00:44:03;8.43;;;7.47;;
4001;SDS011;2015;48.670;9.060;2024-03-02T00:46:38;7.73;;;6.70;;
4001;SDS011;2015;48.670;9.060;2024-03-02T00:51:51;11.10;;;7.30;;
4001;SDS011;2015;48.670;9.060;2024-03-02T00:54:25;10.03;;;6.83;;
4001;SDS011;2015;48.670;9.060;2024-03-02T00:56:58;9.73;;;8.83;;
4001;SDS011;2015;48.670;9.060;2024-03-02T00:59:30;9.50;;;8.03;;
4001;SDS011;2015;48.670;9.060;2024-03-02T01:02:02;12.77;;;8.10;;
4001;SDS011;2015;48.670;9.060;2024-03-02T01:04:35;8.77;;;7.87;;
4001;SDS011;2015;48.670;9.060;2024-03-02T01:07:07;7.87;;;7.07;;
4001;SDS011;2015;48.670;9.060;2024-03-02T01:09:38;11.67;;;8.10;;
4001;SDS011;2015;48.670;9.060;2024-03-02T01:12:12;8.73;;;7.90;;
4001;SDS011;2015;48.670;9.060;2024-03-02T01:14:44;8.70;;;6.63;;
4001;SDS011;2015;48.670;9.060;2024-03-02T01:17:16;9.93;;;7.97;;
4001;SDS011;2015;48.670;9.060;2024-03-02T01:19:47;8.00;;;6.40;;
4001;SDS011;2015;48.670;9.060;2024-03-02T01:22:19;9.20;;;6.90;;
4001;SDS011;2015;48.670;9.060;2024-03-02T01:24:56;12.10;;;7.80;;
4001;SDS011;2015;48.670;9.060;2024-03-02T01:27:28;15.60;;;8.13;;
4001;SDS011;2015;48.670;9.060;2024-03-02T01:29:59;7.03;;;6.43;;
4001;SDS011;2015;48.670;9.060;2024-03-02T01:32:31;8.23;;;7.43;;
4001;SDS011;2015;48.670;9.060;2024-03-02T01:35:03;9.73;;;7.33;;
4001;SDS011;2015;48.670;9.060;2024-03-02T01:37:35;17.65;;;9.30;;
4001;SDS011;2015;48.670;9.060;2024-03-02T01:40:07;8.67;;;7.67;;
4001;SDS011;2015;48.670;9.060;2024-03-02T01:42:42;8.67;;;7.57;;
4001;SDS011;2015;48.670;9.060;2024-03-02T01:45:14;8.07;;;7.30;;
4001;SDS011;2015;48.670;9.060;2024-03-02T01:47:46;15.90;;;9.47;;
4001;SDS011;2015;48.670;9.060;2024-03-02T01:50:26;8.13;;;7.40;;
4001;SDS011;2015;48.670;9.060;2024-03-02T01:53:04;17.70;;;8.40;;
4001;SDS011;2015;48.670;9.060;2024-03-02T01:55:36;6.77;;;6.03;;
4001;SDS011;2015;48.670;9.060;2024-03-02T01:58:07;11.00;;;8.30;;
4001;SDS011;2015;48.670;9.060;2024-03-02T02:00:39;8.73;;;6.13;;
4001;SDS011;2015;48.670;9.060;2024-03-02T02:03:11;7.13;;;6.53;;
4001;SDS011;2015;48.670;9.060;2024-03-02T02:05:43;10.73;;;8.70;;
4001;SDS011;2015;48.670;9.060;2024-03-02T02:08:15;12.47;;;8.10;;
4001;SDS011;2015;48.670;9.060;2024-03-02T02:10:47;16.70;;;8.87;;
4001;SDS011;2015;48.670;9.060;2024-03-02T02:13:18;10.40;;;9.37;;
4001;SDS011;2015;48.670;9.060;2024-03-02T02:15:50;15.87;;;8.27;;
4001;SDS011;2015;48.670;9.060;2024-03-02T02:18:24;13.33;;;9.17;;
4001;SDS011;2015;48.670;9.060;2024-03-02T02:20:56;12.60;;;7.50;;
4001;SDS011;2015;48.670;9.060;2024-03-02T02:23:27;9.70;;;7.50;;
4001;SDS011;2015;48.670;9.060;2024-03-02T02:25:59;17.73;;;8.75;;
4001;SDS011;2015;48.670;9.060;2024-03-02T02:28:31;16.07;;;8.83;;
4001;SDS011;2015;48.670;9.060;2024-03-02T02:31:02;8.90;;;8.00;;
4001;SDS011;2015;48.670;9.060;2024-03-02T02:33:38;15.20;;;9.93;;
4001;SDS011;2015;48.670;9.060;2024-03-02T02:36:13;15.40;;;8.60;;
4001;SDS011;2015;48.670;9.060;2024-03-02T02:38:46;13.50;;;8.63;;
4001;SDS011;2015;48.670;9.060;2024-03-02T02:41:19;8.37;;;7.47;;
4001;SDS011;2015;48.670;9.060;2024-03-02T02:43:51;15.23;;;6.70;;
4001;SDS011;2015;48.670;9.060;2024-03-02T02:46:22;10.63;;;8.07;;
4001;SDS011;2015;48.670;9.060;2024-03-02T02:48:54;13.23;;;9.07;;
4001;SDS011;2015;48.670;9.060;2024-03-02T02:51:26;14.40;;;7.53;;
4001;SDS011;2015;48.670;9.060;2024-03-02T02:53:58;18.10;;;9.73;;
4001;SDS011;2015;48.670;9.060;2024-03-02T02:56:29;14.13;;;6.77;;
4001;SDS011;2015;48.670;9.060;2024-03-02T02:59:01;19.77;;;10.57;;
4001;SDS011;2015;48.670;9.060;2024-03-02T03:01:33;18.42;;;9.77;;
4001;SDS011;2015;48.670;9.060;2024-03-02T03:04:04;13.60;;;9.00;;
4001;SDS011;2015;48.670;9.060;2024-03-02T03:06:36;14.30;;;8.97;;
4001;SDS011;2015;48.670;9.060;2024-03-02T03:09:08;13.33;;;8.00;;
4001;SDS011;2015;48.670;9.060;2024-03-02T03:11:42;10.73;;;7.63;;
4001;SDS011;2015;48.670;9.060;2024-03-02T03:14:14;13.17;;;7.30;;
4001;SDS011;2015;48.670;9.060;2024-03-02T03:16:45;13.47;;;8.10;;
4001;SDS011;2015;48.670;9.060;2024-03-02T03:19:19;10.20;;;6.87;;
4001;SDS011;2015;48.670;9.060;2024-03-02T03:21:51;15.35;;;9.75;;
4001;SDS011;2015;48.670;9.060;2024-03-02T03:24:23;12.43;;;8.20;;
4001;SDS011;2015;48.670;9.060;2024-03-02T03:26:55;7.67;;;6.97;;
4001;SDS011;2015;48.670;9.060;2024-03-02T03:29:26;16.70;;;7.50;;
4001;SDS011;2015;48.670;9.060;2024-03-02T03:31:58;9.00;;;7.50;;
4001;SDS011;2015;48.670;9.060;2024-03-02T03:34:32;9.43;;;8.43;;
4001;SDS011;2015;48.670;9.060;2024-03-02T03:37:04;10.07;;;6.80;;
4001;SDS011;2015;48.670;9.060;2024-03-02T03:39:36;12.77;;;7.37;;
4001;SDS011;2015;48.670;9.060;2024-03-02T03:42:08;12.33;;;7.17;;
4001;SDS011;2015;48.670;9.060;2024-03-02T03:44:40;11.60;;;8.20;;
4001;SDS011;2015;48.670;9.060;2024-03-02T03:47:12;14.90;;;7.80;;
4001;SDS011;2015;48.670;9.060;2024-03-02T03:49:44;13.40;;;6.80;;
4001;SDS011;2015;48.670;9.060;2024-03-02T03:52:16;20.73;;;9.13;;
4001;SDS011;2015;48.670;9.060;2024-03-02T03:54:48;14.73;;;8.07;;
4001;SDS011;2015;48.670;9.060;2024-03-02T03:57:20;12.83;;;8.63;;
4001;SDS011;2015;48.670;9.060;2024-03-02T03:59:52;9.83;;;6.90;;
4001;SDS011;2015;48.670;9.060;2024-03-02T04:02:24;9.20;;;7.80;;
4001;SDS011;2015;48.670;9.060;2024-03-02T04:04:56;12.93;;;7.83;;
4001;SDS011;2015;48.670;9.060;2024-03-02T04:07:28;15.07;;;8.23;;
4001;SDS011;2015;48.670;9.060;2024-03-02T04:10:00;14.55;;;10.27;;
4001;SDS011;2015;48.670;9.060;2024-03-02T04:12:32;11.47;;;8.07;;
4001;SDS011;2015;48.670;9.060;2024-03-02T04:15:04;8.87;;;8.00;;
4001;SDS011;2015;48.670;9.060;2024-03-02T04:17:37;14.33;;;7.47;;
4001;SDS011;2015;48.670;9.060;2024-03-02T04:20:09;12.70;;;7.90;;
4001;SDS011;2015;48.670;9.060;2024-03-02T04:22:43;8.47;;;7.37;;
4001;SDS011;2015;48.670;9.060;2024-03-02T04:25:15;12.60;;;8.30;;
4001;SDS011;2015;48.670;9.060;2024-03-02T04:27:47;13.77;;;7.87;;
4001;SDS011;2015;48.670;9.060;2024-03-02T04:30:18;14.20;;;9.20;;
4001;SDS011;2015;48.670;9.060;2024-03-02T04:32:50;14.03;;;9.23;;
4001;SDS011;2015;48.670;9.060;2024-03-02T04:35:22;10.60;;;8.00;;
4001;SDS011;2015;48.670;9.060;2024-03-02T04:37:54;13.17;;;8.30;;
4001;SDS011;2015;48.670;9.060;2024-03-02T04:40:25;9.57;;;7.17;;
4001;SDS011;2015;48.670;9.060;2024-03-02T04:42:57;14.53;;;8.27;;
4001;SDS011;2015;48.670;9.060;2024-03-02T04:45:30;12.55;;;8.38;;
4001;SDS011;2015;48.670;9.060;2024-03-02T04:48:02;10.37;;;7.97;;
4001;SDS011;2015;48.670;9.060;2024-03-02T04:50:33;8.27;;;5.57;;
4001;SDS011;2015;48.670;9.060;2024-03-02T04:53:05;12.93;;;7.40;;
4001;SDS011;2015;48.670;9.060;2024-03-02T04:55:37;10.97;;;5.80;;
4001;SDS011;2015;48.670;9.060;2024-03-02T04:58:11;10.53;;;6.73;;
4001;SDS011;2015;48.670;9.060;2024-03-02T05:00:43;11.70;;;7.73;;
4001;SDS011;2015;48.670;9.060;2024-03-02T05:03:17;10.50;;;7.77;;
4001;SDS011;2015;48.670;9.060;2024-03-02T05:05:49;14.85;;;8.98;;
4001;SDS011;2015;48.670;9.060;2024-03-02T05:08:21;14.43;;;8.90;;
4001;SDS011;2015;48.670;9.060;2024-03-02T05:10:52;7.17;;;5.87;;
4001;SDS011;2015;48.670;9.060;2024-03-02T05:13:24;12.47;;;6.60;;
4001;SDS011;2015;48.670;9.060;2024-03-02T05:15:56;14.40;;;8.27;;
4001;SDS011;2015;48.670;9.060;2024-03-02T05:18:28;6.97;;;5.53;;
4001;SDS011;2015;48.670;9.060;2024-03-02T05:20:59;11.87;;;7.67;;
4001;SDS011;2015;48.670;9.060;2024-03-02T05:23:31;9.23;;;6.40;;
4001;SDS011;2015;48.670;9.060;2024-03-02T05:26:03;8.77;;;5.87;;
4001;SDS011;2015;48.670;9.060;2024-03-02T05:28:36;8.53;;;6.97;;
4001;SDS011;2015;48.670;9.060;2024-03-02T05:31:11;11.97;;;7.60;;
4001;SDS011;2015;48.670;9.060;2024-03-02T05:33:45;9.17;;;6.40;;
4001;SDS011;2015;48.670;9.060;2024-03-02T05:36:17;12.00;;;6.50;;
4001;SDS011;2015;48.670;9.060;2024-03-02T05:38:49;16.03;;;8.10;;
4001;SDS011;2015;48.670;9.060;2024-03-02T05:41:21;8.13;;;7.43;;
4001;SDS011;2015;48.670;9.060;2024-03-02T05:43:52;11.70;;;8.13;;
4001;SDS011;2015;48.670;9.060;2024-03-02T05:46:24;10.60;;;8.00;;
4001;SDS011;2015;48.670;9.060;2024-03-02T05:48:56;17.10;;;6.77;;
4001;SDS011;2015;48.670;9.060;2024-03-02T05:51:28;11.17;;;7.80;;
4001;SDS011;2015;48.670;9.060;2024-03-02T05:54:00;16.30;;;7.60;;
4001;SDS011;2015;48.670;9.060;2024-03-02T05:56:31;8.10;;;6.27;;
4001;SDS011;2015;48.670;9.060;2024-03-02T05:59:03;13.73;;;8.20;;
4001;SDS011;2015;48.670;9.060;2024-03-02T06:01:45;12.83;;;7.57;;
4001;SDS011;2015;48.670;9.060;2024-03-02T06:04:18;7.67;;;5.73;;
4001;SDS011;2015;48.670;9.060;2024-03-02T06:06:49;7.30;;;6.23;;
4001;SDS011;2015;48.670;9.060;2024-03-02T06:09:21;8.03;;;6.70;;
4001;SDS011;2015;48.670;9.060;2024-03-02T06:11:55;8.57;;;6.83;;
4001;SDS011;2015;48.670;9.060;2024-03-02T06:14:27;9.63;;;6.33;;
4001;SDS011;2015;48.670;9.060;2024-03-02T06:16:59;7.40;;;6.23;;
4001;SDS011;2015;48.670;9.060;2024-03-02T06:19:30;10.10;;;7.00;;
4001;SDS011;2015;48.670;9.060;2024-03-02T06:22:02;10.17;;;6.97;;
4001;SDS011;2015;48.670;9.060;2024-03-02T06:24:35;7.13;;;6.37;;
4001;SDS011;2015;48.670;9.060;2024-03-02T06:27:08;8.10;;;7.10;;
4001;SDS011;2015;48.670;9.060;2024-03-02T06:29:39;9.45;;;7.45;;
4001;SDS011;2015;48.670;9.060;2024-03-02T06:32:11;9.97;;;6.93;;
4001;SDS011;2015;48.670;9.060;2024-03-02T06:34:43;7.80;;;7.00;;
4001;SDS011;2015;48.670;9.060;2024-03-02T06:37:14;11.07;;;6.00;;
4001;SDS011;2015;48.670;9.060;2024-03-02T06:39:47;9.23;;;8.27;;
4001;SDS011;2015;48.670;9.060;2024-03-02T06:42:18;11.60;;;7.10;;
4001;SDS011;2015;48.670;9.060;2024-03-02T06:44:50;13.10;;;7.57;;
4001;SDS011;2015;48.670;9.060;2024-03-02T06:47:22;11.80;;;7.93;;
4001;SDS011;2015;48.670;9.060;2024-03-02T06:49:54;15.77;;;8.05;;
4001;SDS011;2015;48.670;9.060;2024-03-02T06:52:25;10.00;;;6.80;;
4001;SDS011;2015;48.670;9.060;2024-03-02T06:54:57;12.07;;;6.77;;
4001;SDS011;2015;48.670;9.060;2024-03-02T06:57:30;22.77;;;6.47;;
4001;SDS011;2015;48.670;9.060;2024-03-02T07:00:02;12.00;;;6.77;;
4001;SDS011;2015;48.670;9.060;2024-03-02T07:02:36;18.30;;;7.93;;
4001;SDS011;2015;48.670;9.060;2024-03-02T07:05:08;14.27;;;8.10;;
4001;SDS011;2015;48.670;9.060;2024-03-02T07:07:40;12.63;;;7.87;;
4001;SDS011;2015;48.670;9.060;2024-03-02T07:10:12;10.87;;;6.60;;
4001;SDS011;2015;48.670;9.060;2024-03-02T07:12:44;6.53;;;5.23;;
4001;SDS011;2015;48.670;9.060;2024-03-02T07:15:16;8.03;;;6.80;;
4001;SDS011;2015;48.670;9.060;2024-03-02T07:18:00;10.07;;;5.90;;
4001;SDS011;2015;48.670;9.060;2024-03-02T07:20:32;10.50;;;7.20;;
4001;SDS011;2015;48.670;9.060;2024-03-02T07:23:04;9.53;;;7.70;;
4001;SDS011;2015;48.670;9.060;2024-03-02T07:25:37;12.03;;;7.67;;
4001;SDS011;2015;48.670;9.060;2024-03-02T07:28:11;11.80;;;8.00;;
4001;SDS011;2015;48.670;9.060;2024-03-02T07:30:43;13.80;;;8.40;;
4001;SDS011;2015;48.670;9.060;2024-03-02T07:33:15;10.10;;;7.37;;
4001;SDS011;2015;48.670;9.060;2024-03-02T07:35:48;12.67;;;8.90;;
4001;SDS011;2015;48.670;9.060;2024-03-02T07:38:19;13.03;;;8.57;;
4001;SDS011;2015;48.670;9.060;2024-03-02T07:40:52;9.60;;;8.10;;
4001;SDS011;2015;48.670;9.060;2024-03-02T07:43:24;10.93;;;8.00;;
4001;SDS011;2015;48.670;9.060;2024-03-02T07:45:56;12.50;;;9.30;;
4001;SDS011;2015;48.670;9.060;2024-03-02T07:48:28;11.43;;;9.60;;
4001;SDS011;2015;48.670;9.060;2024-03-02T07:51:00;14.40;;;9.80;;
4001;SDS011;2015;48.670;9.060;2024-03-02T07:53:33;21.60;;;13.83;;
4001;SDS011;2015;48.670;9.060;2024-03-02T07:56:05;18.67;;;12.70;;
4001;SDS011;2015;48.670;9.060;2024-03-02T07:58:37;16.25;;;11.68;;
4001;SDS011;2015;48.670;9.060;2024-03-02T08:01:09;11.93;;;10.30;;
4001;SDS011;2015;48.670;9.060;2024-03-02T08:03:41;17.53;;;10.70;;
4001;SDS011;2015;48.670;9.060;2024-03-02T08:06:14;20.67;;;12.23;;
4001;SDS011;2015;48.670;9.060;2024-03-02T08:08:48;20.00;;;11.70;;
4001;SDS011;2015;48.670;9.060;2024-03-02T08:11:20;19.43;;;11.90;;
4001;SDS011;2015;48.670;9.060;2024-03-02T08:13:53;17.50;;;11.27;;
4001;SDS011;2015;48.670;9.060;2024-03-02T08:16:26;16.13;;;9.70;;
4001;SDS011;2015;48.670;9.060;2024-03-02T08:18:58;19.10;;;9.43;;
4001;SDS011;2015;48.670;9.060;2024-03-02T08:21:30;13.77;;;9.30;;
4001;SDS011;2015;48.670;9.060;2024-03-02T08:24:03;11.37;;;9.33;;
4001;SDS011;2015;48.670;9.060;2024-03-02T08:26:35;20.03;;;8.60;;
4001;SDS011;2015;48.670;9.060;2024-03-02T08:29:07;11.93;;;8.30;;
4001;SDS011;2015;48.670;9.060;2024-03-02T08:31:38;11.73;;;7.70;;
4001;SDS011;2015;48.670;9.060;2024-03-02T08:34:12;15.18;;;9.38;;
4001;SDS011;2015;48.670;9.060;2024-03-02T08:36:44;11.57;;;8.63;;
4001;SDS011;2015;48.670;9.060;2024-03-02T08:39:17;11.73;;;8.90;;
4001;SDS011;2015;48.670;9.060;2024-03-02T08:41:50;13.50;;;8.60;;
4001;SDS011;2015;48.670;9.060;2024-03-02T08:44:22;10.30;;;7.90;;
4001;SDS011;2015;48.670;9.060;2024-03-02T08:46:54;13.30;;;8.17;;
4001;SDS011;2015;48.670;9.060;2024-03-02T08:49:26;15.93;;;7.90;;
4001;SDS011;2015;48.670;9.060;2024-03-02T08:51:57;7.73;;;6.83;;
4001;SDS011;2015;48.670;9.060;2024-03-02T08:54:29;12.80;;;8.63;;
4001;SDS011;2015;48.670;9.060;2024-03-02T08:57:01;7.87;;;7.17;;
4001;SDS011;2015;48.670;9.060;2024-03-02T08:59:33;7.83;;;7.10;;
4001;SDS011;2015;48.670;9.060;2024-03-02T09:02:04;8.00;;;7.20;;
4001;SDS011;2015;48.670;9.060;2024-03-02T09:04:36;8.30;;;5.50;;
4001;SDS011;2015;48.670;9.060;2024-03-02T09:07:08;7.87;;;7.07;;
4001;SDS011;2015;48.670;9.060;2024-03-02T09:09:40;6.70;;;6.20;;
4001;SDS011;2015;48.670;9.060;2024-03-02T09:12:12;8.00;;;6.83;;
4001;SDS011;2015;48.670;9.060;2024-03-02T09:14:44;10.50;;;6.70;;
4001;SDS011;2015;48.670;9.060;2024-03-02T09:17:16;8.73;;;5.73;;
4001;SDS011;2015;48.670;9.060;2024-03-02T09:19:48;5.13;;;4.73;;
4001;SDS011;2015;48.670;9.060;2024-03-02T09:22:23;9.23;;;6.50;;
4001;SDS011;2015;48.670;9.060;2024-03-02T09:24:55;9.10;;;6.13;;
4001;SDS011;2015;48.670;9.060;2024-03-02T09:27:27;6.33;;;5.83;;
4001;SDS011;2015;48.670;9.060;2024-03-02T09:29:59;8.57;;;5.40;;
4001;SDS011;2015;48.670;9.060;2024-03-02T09:32:30;6.70;;;5.03;;
4001;SDS011;2015;48.670;9.060;2024-03-02T09:35:02;7.57;;;5.13;;
4001;SDS011;2015;48.670;9.060;2024-03-02T09:37:34;6.83;;;6.17;;
4001;SDS011;2015;48.670;9.060;2024-03-02T09:40:07;9.10;;;5.80;;
4001;SDS011;2015;48.670;9.060;2024-03-02T09:42:39;6.83;;;6.23;;
4001;SDS011;2015;48.670;9.060;2024-03-02T09:45:12;4.50;;;4.13;;
4001;SDS011;2015;48.670;9.060;2024-03-02T09:47:44;4.10;;;3.70;;
4001;SDS011;2015;48.670;9.060;2024-03-02T09:50:16;4.67;;;3.63;;
4001;SDS011;2015;48.670;9.060;2024-03-02T09:52:48;5.63;;;3.40;;
4001;SDS011;2015;48.670;9.060;2024-03-02T09:55:21;5.15;;;3.90;;
4001;SDS011;2015;48.670;9.060;2024-03-02T09:57:53;4.97;;;3.70;;
4001;SDS011;2015;48.670;9.060;2024-03-02T10:00:24;3.73;;;3.43;;
4001;SDS011;2015;48.670;9.060;2024-03-02T10:02:56;3.33;;;3.13;;
4001;SDS011;2015;48.670;9.060;2024-03-02T10:05:29;4.60;;;4.03;;
4001;SDS011;2015;48.670;9.060;2024-03-02T10:08:02;3.37;;;3.17;;
4001;SDS011;2015;48.670;9.060;2024-03-02T10:10:37;3.60;;;3.30;;
4001;SDS011;2015;48.670;9.060;2024-03-02T10:13:14;3.97;;;3.67;;
4001;SDS011;2015;48.670;9.060;2024-03-02T10:15:47;3.65;;;3.45;;
4001;SDS011;2015;48.670;9.060;2024-03-02T10:18:26;4.07;;;3.67;;
4001;SDS011;2015;48.670;9.060;2024-03-02T10:21:12;3.17;;;2.97;;
4001;SDS011;2015;48.670;9.060;2024-03-02T10:23:45;4.37;;;4.07;;
4001;SDS011;2015;48.670;9.060;2024-03-02T10:26:17;3.77;;;3.57;;
4001;SDS011;2015;48.670;9.060;2024-03-02T10:28:52;3.43;;;3.20;;
4001;SDS011;2015;48.670;9.060;2024-03-02T10:31:30;4.00;;;3.70;;
4001;SDS011;2015;48.670;9.060;2024-03-02T10:34:03;4.20;;;3.80;;
4001;SDS011;2015;48.670;9.060;2024-03-02T10:36:35;3.07;;;2.80;;
4001;SDS011;2015;48.670;9.060;2024-03-02T10:39:08;2.30;;;2.20;;
4001;SDS011;2015;48.670;9.060;2024-03-02T10:41:40;2.07;;;1.97;;
4001;SDS011;2015;48.670;9.060;2024-03-02T10:44:12;2.43;;;2.33;;
4001;SDS011;2015;48.670;9.060;2024-03-02T10:46:45;2.53;;;2.43;;
4001;SDS011;2015;48.670;9.060;2024-03-02T10:49:18;2.77;;;2.53;;
4001;SDS011;2015;48.670;9.060;2024-03-02T10:51:51;1.80;;;1.70;;
4001;SDS011;2015;48.670;9.060;2024-03-02T10:54:24;1.83;;;1.73;;
4001;SDS011;2015;48.670;9.060;2024-03-02T10:57:01;1.30;;;1.20;;
4001;SDS011;2015;48.670;9.060;2024-03-02T10:59:36;1.70;;;1.60;;
4001;SDS011;2015;48.670;9.060;2024-03-02T11:02:11;1.43;;;1.33;;
4001;SDS011;2015;48.670;9.060;2024-03-02T11:04:45;1.97;;;1.23;;
4001;SDS011;2015;48.670;9.060;2024-03-02T11:07:19;1.40;;;1.00;;
4001;SDS011;2015;48.670;9.060;2024-03-02T11:09:54;1.40;;;1.30;;
4001;SDS011;2015;48.670;9.060;2024-03-02T11:12:44;1.60;;;1.50;;
4001;SDS011;2015;48.670;9.060;2024-03-02T11:15:42;1.40;;;1.30;;
4001;SDS011;2015;48.670;9.060;2024-03-02T11:18:15;1.30;;;1.20;;
4001;SDS011;2015;48.670;9.060;2024-03-02T11:20:50;1.57;;;1.47;;
4001;SDS011;2015;48.670;9.060;2024-03-02T11:23:31;1.33;;;1.23;;
4001;SDS011;2015;48.670;9.060;2024-03-02T11:26:16;1.20;;;1.10;;
4001;SDS011;2015;48.670;9.060;2024-03-02T11:28:52;1.33;;;1.23;;
4001;SDS011;2015;48.670;9.060;2024-03-02T11:31:36;1.67;;;1.57;;
4001;SDS011;2015;48.670;9.060;2024-03-02T11:34:35;1.80;;;1.70;;
4001;SDS011;2015;48.670;9.060;2024-03-02T11:37:08;1.90;;;1.80;;
4001;SDS011;2015;48.670;9.060;2024-03-02T11:39:42;2.27;;;2.10;;
4001;SDS011;2015;48.670;9.060;2024-03-02T11:42:15;3.65;;;3.33;;
4001;SDS011;2015;48.670;9.060;2024-03-02T11:44:48;6.87;;;5.97;;
4001;SDS011;2015;48.670;9.060;2024-03-02T11:47:20;3.40;;;3.10;;
4001;SDS011;2015;48.670;9.060;2024-03-02T11:49:52;3.00;;;2.80;;
4001;SDS011;2015;48.670;9.060;2024-03-02T11:52:24;2.90;;;2.70;;
4001;SDS011;2015;48.670;9.060;2024-03-02T11:54:58;3.13;;;2.87;;
4001;SDS011;2015;48.670;9.060;2024-03-02T11:57:31;2.50;;;2.30;;
4001;SDS011;2015;48.670;9.060;2024-03-02T12:00:03;3.17;;;2.90;;
4001;SDS011;2015;48.670;9.060;2024-03-02T12:02:37;2.60;;;2.40;;
4001;SDS011;2015;48.670;9.060;2024-03-02T12:05:10;3.23;;;2.70;;
4001;SDS011;2015;48.670;9.060;2024-03-02T12:07:41;3.10;;;2.90;;
4001;SDS011;2015;48.670;9.060;2024-03-02T12:10:14;2.93;;;2.73;;
4001;SDS011;2015;48.670;9.060;2024-03-02T12:12:46;4.70;;;4.30;;
4001;SDS011;2015;48.670;9.060;2024-03-02T12:15:22;3.60;;;3.30;;
4001;SDS011;2015;48.670;9.060;2024-03-02T12:17:58;3.47;;;3.20;;
4001;SDS011;2015;48.670;9.060;2024-03-02T12:20:32;2.80;;;2.60;;
4001;SDS011;2015;48.670;9.060;2024-03-02T12:23:04;4.10;;;3.70;;
4001;SDS011;2015;48.670;9.060;2024-03-02T12:25:36;3.50;;;3.20;;
4001;SDS011;2015;48.670;9.060;2024-03-02T12:28:08;3.43;;;3.13;;
4001;SDS011;2015;48.670;9.060;2024-03-02T12:30:40;2.60;;;2.40;;
4001;SDS011;2015;48.670;9.060;2024-03-02T12:33:12;2.67;;;2.50;;
4001;SDS011;2015;48.670;9.060;2024-03-02T12:35:44;3.60;;;3.30;;
4001;SDS011;2015;48.670;9.060;2024-03-02T12:38:16;2.90;;;2.70;;
4001;SDS011;2015;48.670;9.060;2024-03-02T12:40:48;3.30;;;3.10;;
4001;SDS011;2015;48.670;9.060;2024-03-02T12:43:20;3.07;;;2.77;;
4001;SDS011;2015;48.670;9.060;2024-03-02T12:45:52;4.13;;;3.83;;
4001;SDS011;2015;48.670;9.060;2024-03-02T12:48:27;3.80;;;3.50;;
4001;SDS011;2015;48.670;9.060;2024-03-02T12:50:59;2.78;;;2.58;;
4001;SDS011;2015;48.670;9.060;2024-03-02T12:53:31;3.60;;;3.40;;
4001;SDS011;2015;48.670;9.060;2024-03-02T12:56:03;2.97;;;2.77;;
4001;SDS011;2015;48.670;9.060;2024-03-02T12:58:39;4.07;;;3.77;;
4001;SDS011;2015;48.670;9.060;2024-03-02T13:01:14;3.67;;;3.37;;
4001;SDS011;2015;48.670;9.060;2024-03-02T13:03:49;2.50;;;2.30;;
4001;SDS011;2015;48.670;9.060;2024-03-02T13:06:26;2.93;;;2.73;;
4001;SDS011;2015;48.670;9.060;2024-03-02T13:08:59;2.93;;;2.73;;
4001;SDS011;2015;48.670;9.060;2024-03-02T13:11:31;2.63;;;2.43;;
4001;SDS011;2015;48.670;9.060;2024-03-02T13:14:03;2.53;;;2.33;;
4001;SDS011;2015;48.670;9.060;2024-03-02T13:16:39;2.73;;;2.50;;
4001;SDS011;2015;48.670;9.060;2024-03-02T13:19:18;2.70;;;2.50;;
4001;SDS011;2015;48.670;9.060;2024-03-02T13:21:52;2.60;;;2.40;;
4001;SDS011;2015;48.670;9.060;2024-03-02T13:24:24;2.13;;;2.03;;
4001;SDS011;2015;48.670;9.060;2024-03-02T13:26:59;1.97;;;1.87;;
4001;SDS011;2015;48.670;9.060;2024-03-02T13:29:31;3.10;;;2.80;;
4001;SDS011;2015;48.670;9.060;2024-03-02T13:32:03;2.40;;;1.83;;
4001;SDS011;2015;48.670;9.060;2024-03-02T13:34:35;2.47;;;2.27;;
4001;SDS011;2015;48.670;9.060;2024-03-02T13:37:10;2.50;;;2.30;;
4001;SDS011;2015;48.670;9.060;2024-03-02T13:39:42;4.20;;;2.90;;
4001;SDS011;2015;48.670;9.060;2024-03-02T13:42:14;2.83;;;2.63;;
4001;SDS011;2015;48.670;9.060;2024-03-02T13:44:46;3.37;;;3.13;;
4001;SDS011;2015;48.670;9.060;2024-03-02T13:47:20;2.93;;;2.73;;
4001;SDS011;2015;48.670;9.060;2024-03-02T13:49:52;3.03;;;2.60;;
4001;SDS011;2015;48.670;9.060;2024-03-02T13:52:24;2.87;;;2.63;;
4001;SDS011;2015;48.670;9.060;2024-03-02T13:54:57;3.30;;;3.10;;
4001;SDS011;2015;48.670;9.060;2024-03-02T13:57:29;3.13;;;2.93;;
4001;SDS011;2015;48.670;9.060;2024-03-02T14:00:02;3.60;;;3.30;;
4001;SDS011;2015;48.670;9.060;2024-03-02T14:02:34;2.63;;;2.43;;
4001;SDS011;2015;48.670;9.060;2024-03-02T14:05:06;2.37;;;2.17;;
4001;SDS011;2015;48.670;9.060;2024-03-02T14:07:42;2.60;;;2.40;;
4001;SDS011;2015;48.670;9.060;2024-03-02T14:10:15;3.30;;;3.00;;
4001;SDS011;2015;48.670;9.060;2024-03-02T14:12:47;2.90;;;2.70;;
4001;SDS011;2015;48.670;9.060;2024-03-02T14:15:20;3.80;;;3.50;;
4001;SDS011;2015;48.670;9.060;2024-03-02T14:17:52;3.70;;;3.37;;
4001;SDS011;2015;48.670;9.060;2024-03-02T14:20:25;4.07;;;3.77;;
4001;SDS011;2015;48.670;9.060;2024-03-02T14:22:56;3.17;;;2.97;;
4001;SDS011;2015;48.670;9.060;2024-03-02T14:25:30;3.37;;;2.83;;
4001;SDS011;2015;48.670;9.060;2024-03-02T14:28:04;3.00;;;2.80;;
4001;SDS011;2015;48.670;9.060;2024-03-02T14:30:39;6.03;;;3.47;;
4001;SDS011;2015;48.670;9.060;2024-03-02T14:33:11;3.37;;;3.17;;
4001;SDS011;2015;48.670;9.060;2024-03-02T14:35:44;2.40;;;2.10;;
4001;SDS011;2015;48.670;9.060;2024-03-02T14:38:16;5.37;;;3.73;;
4001;SDS011;2015;48.670;9.060;2024-03-02T14:40:48;2.57;;;2.40;;
4001;SDS011;2015;48.670;9.060;2024-03-02T14:43:22;3.23;;;3.03;;
4001;SDS011;2015;48.670;9.060;2024-03-02T14:45:53;3.87;;;3.47;;
4001;SDS011;2015;48.670;9.060;2024-03-02T14:48:25;4.90;;;2.90;;
4001;SDS011;2015;48.670;9.060;2024-03-02T14:50:57;2.93;;;2.73;;
4001;SDS011;2015;48.670;9.060;2024-03-02T14:53:29;3.47;;;3.23;;
4001;SDS011;2015;48.670;9.060;2024-03-02T14:56:01;3.23;;;3.03;;
4001;SDS011;2015;48.670;9.060;2024-03-02T14:58:33;2.73;;;2.60;;
4001;SDS011;2015;48.670;9.060;2024-03-02T15:01:06;4.17;;;3.87;;
4001;SDS011;2015;48.670;9.060;2024-03-02T15:03:40;3.03;;;2.83;;
4001;SDS011;2015;48.670;9.060;2024-03-02T15:06:12;5.00;;;4.27;;
4001;SDS011;2015;48.670;9.060;2024-03-02T15:08:44;3.27;;;2.97;;
4001;SDS011;2015;48.670;9.060;2024-03-02T15:11:17;3.53;;;3.33;;
4001;SDS011;2015;48.670;9.060;2024-03-02T15:13:49;2.83;;;2.63;;
4001;SDS011;2015;48.670;9.060;2024-03-02T15:16:21;2.60;;;2.50;;
4001;SDS011;2015;48.670;9.060;2024-03-02T15:18:52;4.33;;;3.77;;
4001;SDS011;2015;48.670;9.060;2024-03-02T15:21:24;3.90;;;3.60;;
4001;SDS011;2015;48.670;9.060;2024-03-02T15:23:56;3.37;;;2.83;;
4001;SDS011;2015;48.670;9.060;2024-03-02T15:26:28;7.10;;;2.97;;
4001;SDS011;2015;48.670;9.060;2024-03-02T15:28:59;3.20;;;3.00;;
4001;SDS011;2015;48.670;9.060;2024-03-02T15:31:31;2.57;;;2.37;;
4001;SDS011;2015;48.670;9.060;2024-03-02T15:34:03;3.27;;;2.97;;
4001;SDS011;2015;48.670;9.060;2024-03-02T15:36:35;3.40;;;2.87;;
4001;SDS011;2015;48.670;9.060;2024-03-02T15:39:07;3.53;;;2.63;;
4001;SDS011;2015;48.670;9.060;2024-03-02T15:41:40;3.60;;;3.30;;
4001;SDS011;2015;48.670;9.060;2024-03-02T15:44:12;3.50;;;3.20;;
4001;SDS011;2015;48.670;9.060;2024-03-02T15:46:44;3.00;;;2.80;;
4001;SDS011;2015;48.670;9.060;2024-03-02T15:49:16;3.37;;;3.17;;